East Setauket, NY (11733)

9:59 PM EST on February 22, 2017 (GMT -0500)
Schooner Cove | | Change Station
Active Advisory: Special Statement

Elev 72 ft 40.95 °N, 73.10 °W | Updated 4 minutes ago

Partly Cloudy
Partly Cloudy
39.9 °F
Feels Like 40 °F
N
0.0
Wind Variable Wind from North
Gusts 0.0 mph

Today
High -- | Low -- °F
--% Chance of Precip.
Yesterday
High -- | Low -- °F
Precip. -- in
Pressure 29.91 in
Visibility 2.5 miles
Clouds Few 200 ft
Scattered Clouds 700 ft
Scattered Clouds 12000 ft
Windchill 40 °F
Dew Point 33 °F
Humidity 77%
Rainfall 0.00 in
Snow Depth Not available.
6:36 AM 5:35 PM
Waning Crescent, 13% visible
METAR KISP 230256Z 00000KT 2 1/2SM BR FEW002 SCT007 SCT120 06/06 A2991 RMK AO2 SFC VIS 5 SLP127 T00610061 58003 $
Pressure 29.91 in
Visibility 2.5 miles
Clouds Few 200 ft
Scattered Clouds 700 ft
Scattered Clouds 12000 ft
Windchill 40 °F
Dew Point 33 °F
Humidity 77%
Rainfall 0.00 in
Snow Depth Not available.
6:36 AM 5:35 PM
Waning Crescent, 13% visible
METAR KISP 230256Z 00000KT 2 1/2SM BR FEW002 SCT007 SCT120 06/06 A2991 RMK AO2 SFC VIS 5 SLP127 T00610061 58003 $

Get Your Daily Forecast Email!

Thanks for signing up!

Be on the lookout for a verification email in your inbox.

You'll start receiving the daily forecast at 8 AM.

×

10-Day Weather Forecast

Almanac

Astronomy

Feb. 22, 2017 Rise Set
Actual Time
Civil Twilight
Nautical Twilight
Astronomical Twilight
Moon
Length of Visible Light
Length of Day
Tomorrow will be .
, % of the Moon is Illuminated

Today's Extremes

State Highs State Lows

Community

WunderPhotos

Upload Photos

1,962,540 photos uploaded!

WunderBlog® & News

Nearby

Air Quality

  Air Quality AQ Index Pollutant
Not available.

Snow Depth

Station Depth Elevation

Earthquake Activity

City Distance Mag. Time & Date
Minimum magnitude displayed is 2.5.

Coastal Water Temperatures

Place Temperature

Stations

Nearby Weather Stations

Station Location Temp. Windchill Dew Point Humidity Wind Precip. Elev Updated Type
                   

Watches & Warnings

Special Statement
Issued: 9:05 PM EST Feb. 22, 2017 – National Weather Service

Areas of fog have recently developed, primarily over eastern
Suffolk County. There is a good chance that fog becomes more
widespread over the next few hours, and it is possible that the
fog becomes locally dense.

Motorists should be prepared for reduced visibility and exercise
extra caution.



905 PM EST Wed Feb 22 2017

Areas of fog have recently developed, primarily over eastern
Suffolk County. There is a good chance that fog becomes more
widespread over the next few hours, and it is possible that the
fog becomes locally dense.

Motorists should be prepared for reduced visibility and exercise
extra caution.